Caribe Alliance — WDC9383 — position and weather

sailwx.info

Track history (hours):
 
Tides and Currents Weather Stations Pressure Air Temp Water Temp Dewpoint Dewpoint Depression Visibility Wind Speed Wind Dir Waves Ship Positions

Caribe Alliance

Owner: Gulf Caribe Maritime, Redondo Beach, CA. More information available from US FCC via Universal Licensing System and Coast Guard Vessel Documentation Center.

Last reported at 2016-May-29 01:11 UTC. Time now 2016-May-29 03:56 UTC.
Position N 33°51' W 118°24'.

Length 19 m; draft 3.3 m.

Type: Port tender. MMSI: 367101530.

Date/timePositionNaut miles runAvg speedWind from/ knotsBaromVisibWave heightAir tempDewpointWater temp
2016-May-29 01:11N 33°51' W 118°24'0 0.0
2016-May-29 00:34N 33°51' W 118°24'0 0.0
2016-May-28 23:33N 33°51' W 118°24'0 0.0
2016-May-28 22:34N 33°51' W 118°24'0 0.0
2016-May-28 21:34N 33°51' W 118°24'0 0.0
2016-May-28 20:34N 33°51' W 118°24'0 0.0
2016-May-28 19:34N 33°51' W 118°24'0 0.0
2016-May-28 18:32N 33°51' W 118°24'0 0.0
2016-May-28 17:32N 33°51' W 118°24'0 0.0
2016-May-28 16:33N 33°51' W 118°24'0 0.0
2016-May-28 15:34N 33°51' W 118°24'0 0.0
2016-May-28 14:30N 33°51' W 118°23'0 0.1
2016-May-28 13:33N 33°51' W 118°24'0 0.0
2016-May-28 12:32N 33°51' W 118°24'0 0.0
2016-May-28 11:19N 33°51' W 118°24'0 0.0
2016-May-28 10:31N 33°51' W 118°24'0 0.0
2016-May-28 09:04N 33°51' W 118°24'0 0.0
2016-May-28 08:31N 33°51' W 118°24'0 0.0
2016-May-27 21:03N 33°51' W 118°24'0 0.0
2016-May-26 21:28N 33°51' W 118°24'0 0.0
2016-May-26 13:30N 33°51' W 118°24'5 1.2
2016-May-26 09:32N 33°54' W 118°27'0 0.1
2016-May-26 07:32N 33°54' W 118°27'0 0.0
2016-May-26 06:29N 33°54' W 118°27'0 0.0
2016-May-26 02:33N 33°54' W 118°27'0 0.0
2016-May-25 22:13N 33°54' W 118°27'0 0.2
2016-May-25 20:27N 33°54' W 118°27'0 0.3
2016-May-25 19:33N 33°54' W 118°27'0 0.2
2016-May-25 18:33N 33°54' W 118°27'0 0.1
2016-May-25 13:32N 33°54' W 118°27'0 0.0
2016-May-25 12:29N 33°54' W 118°27'0 0.0
2016-May-25 11:32N 33°54' W 118°27'0 0.0
2016-May-25 10:32N 33°54' W 118°27'0 0.0
2016-May-25 09:23N 33°54' W 118°27'0 0.0
2016-May-25 08:32N 33°54' W 118°27'0 0.0
2016-May-25 07:32N 33°54' W 118°27'0 0.0
2016-May-25 06:26N 33°54' W 118°27'0 0.0
2016-May-25 05:20N 33°54' W 118°27'0 0.0
2016-May-25 04:32N 33°54' W 118°27'0 0.3
2016-May-25 03:31N 33°54' W 118°27'0 0.1
2016-May-25 02:33N 33°54' W 118°27'0 0.2
2016-May-25 01:21N 33°54' W 118°27'0 0.2
2016-May-25 00:30N 33°54' W 118°27'0 0.2
2016-May-24 23:26N 33°54' W 118°27'0 0.2
2016-May-24 22:33N 33°54' W 118°27'3 1.7
2016-May-24 20:33N 33°51' W 118°25'1 1.3
2016-May-24 19:31N 33°51' W 118°24'0 0.0
2016-May-24 18:31N 33°51' W 118°24'0 0.0
2016-May-24 17:26N 33°51' W 118°24'0 0.0
2016-May-24 16:32N 33°51' W 118°24'0 0.0
2016-May-24 13:32N 33°51' W 118°24'0 0.0
2016-May-24 12:32N 33°51' W 118°24'0 0.0
2016-May-24 11:32N 33°51' W 118°24'0 0.0
2016-May-24 10:32N 33°51' W 118°24'0 0.0
2016-May-24 09:32N 33°51' W 118°24'0 0.0
2016-May-24 08:32N 33°51' W 118°24'0 0.0
2016-May-24 07:32N 33°51' W 118°24'0 0.0
2016-May-24 06:32N 33°51' W 118°24'0 0.0
2016-May-24 05:29N 33°51' W 118°24'0 0.0
2016-May-24 04:32N 33°51' W 118°24'  
2016-May-20 18:05N 33°52' W 118°26'3 4.8
2016-May-20 17:26N 33°55' W 118°27'0 0.1
2016-May-20 16:32N 33°55' W 118°27'0 0.3
2016-May-20 15:32N 33°55' W 118°27'0 0.0
2016-May-20 14:32N 33°55' W 118°27'0 0.0
2016-May-20 13:32N 33°55' W 118°27'0 0.0
2016-May-20 12:27N 33°55' W 118°27'0 0.0
2016-May-20 11:33N 33°55' W 118°27'0 0.0
2016-May-20 10:33N 33°55' W 118°27'0 0.0
2016-May-20 09:33N 33°55' W 118°27'0 0.0
2016-May-20 08:33N 33°55' W 118°27'0 0.0
2016-May-20 07:27N 33°55' W 118°27'0 0.0
2016-May-20 06:33N 33°55' W 118°27'0 0.0
2016-May-20 05:33N 33°55' W 118°27'0 0.0
2016-May-20 04:33N 33°55' W 118°27'0 0.0
2016-May-20 03:33N 33°55' W 118°27'0 0.0
2016-May-20 02:09N 33°55' W 118°27'0 0.0
2016-May-20 01:32N 33°55' W 118°27'0 0.0
2016-May-20 00:33N 33°55' W 118°27'0 0.0
2016-May-19 20:12N 33°55' W 118°27'0 0.0
2016-May-19 19:28N 33°55' W 118°27'0 0.0
2016-May-19 18:33N 33°55' W 118°27'0 0.0
2016-May-19 17:33N 33°55' W 118°27'0 0.0
2016-May-19 16:33N 33°55' W 118°27'0 0.1
2016-May-19 15:33N 33°55' W 118°27'0 0.0
2016-May-19 14:33N 33°55' W 118°27'0 0.0
2016-May-19 13:33N 33°55' W 118°27'0 0.1
2016-May-19 12:33N 33°55' W 118°27'0 0.0
2016-May-19 11:18N 33°55' W 118°27'0 0.0
2016-May-19 10:30N 33°55' W 118°27'0 0.0
2016-May-19 09:33N 33°55' W 118°27'0 0.0
2016-May-19 08:33N 33°55' W 118°27'0 0.0
2016-May-19 07:26N 33°55' W 118°27'0 0.0
2016-May-19 06:21N 33°55' W 118°27'0 0.0
2016-May-19 05:32N 33°55' W 118°27'  
Track history (hours):
 
Tides and Currents Weather Stations Pressure Air Temp Water Temp Dewpoint Dewpoint Depression Visibility Wind Speed Wind Dir Waves Ship Positions

Caribe Alliance

Owner: Gulf Caribe Maritime, Redondo Beach, CA. More information available from US FCC via Universal Licensing System and Coast Guard Vessel Documentation Center.

Last reported at 2016-May-29 01:11 UTC. Time now 2016-May-29 03:56 UTC.
Position N 33°51' W 118°24'.

Length 19 m; draft 3.3 m.

Type: Port tender. MMSI: 367101530.

Date/timePositionNaut miles runAvg speedWind from/ knotsBaromVisibWave heightAir tempDewpointWater temp
2016-May-29 01:11N 33°51' W 118°24'0 0.0
2016-May-29 00:34N 33°51' W 118°24'0 0.0
2016-May-28 23:33N 33°51' W 118°24'0 0.0
2016-May-28 22:34N 33°51' W 118°24'0 0.0
2016-May-28 21:34N 33°51' W 118°24'0 0.0
2016-May-28 20:34N 33°51' W 118°24'0 0.0
2016-May-28 19:34N 33°51' W 118°24'0 0.0
2016-May-28 18:32N 33°51' W 118°24'0 0.0
2016-May-28 17:32N 33°51' W 118°24'0 0.0
2016-May-28 16:33N 33°51' W 118°24'0 0.0
2016-May-28 15:34N 33°51' W 118°24'0 0.0
2016-May-28 14:30N 33°51' W 118°23'0 0.1
2016-May-28 13:33N 33°51' W 118°24'0 0.0
2016-May-28 12:32N 33°51' W 118°24'0 0.0
2016-May-28 11:19N 33°51' W 118°24'0 0.0
2016-May-28 10:31N 33°51' W 118°24'0 0.0
2016-May-28 09:04N 33°51' W 118°24'0 0.0
2016-May-28 08:31N 33°51' W 118°24'0 0.0
2016-May-27 21:03N 33°51' W 118°24'0 0.0
2016-May-26 21:28N 33°51' W 118°24'0 0.0
2016-May-26 13:30N 33°51' W 118°24'5 1.2
2016-May-26 09:32N 33°54' W 118°27'0 0.1
2016-May-26 07:32N 33°54' W 118°27'0 0.0
2016-May-26 06:29N 33°54' W 118°27'0 0.0
2016-May-26 02:33N 33°54' W 118°27'0 0.0
2016-May-25 22:13N 33°54' W 118°27'0 0.2
2016-May-25 20:27N 33°54' W 118°27'0 0.3
2016-May-25 19:33N 33°54' W 118°27'0 0.2
2016-May-25 18:33N 33°54' W 118°27'0 0.1
2016-May-25 13:32N 33°54' W 118°27'0 0.0
2016-May-25 12:29N 33°54' W 118°27'0 0.0
2016-May-25 11:32N 33°54' W 118°27'0 0.0
2016-May-25 10:32N 33°54' W 118°27'0 0.0
2016-May-25 09:23N 33°54' W 118°27'0 0.0
2016-May-25 08:32N 33°54' W 118°27'0 0.0
2016-May-25 07:32N 33°54' W 118°27'0 0.0
2016-May-25 06:26N 33°54' W 118°27'0 0.0
2016-May-25 05:20N 33°54' W 118°27'0 0.0
2016-May-25 04:32N 33°54' W 118°27'0 0.3
2016-May-25 03:31N 33°54' W 118°27'0 0.1
2016-May-25 02:33N 33°54' W 118°27'0 0.2
2016-May-25 01:21N 33°54' W 118°27'0 0.2
2016-May-25 00:30N 33°54' W 118°27'0 0.2
2016-May-24 23:26N 33°54' W 118°27'0 0.2
2016-May-24 22:33N 33°54' W 118°27'3 1.7
2016-May-24 20:33N 33°51' W 118°25'1 1.3
2016-May-24 19:31N 33°51' W 118°24'0 0.0
2016-May-24 18:31N 33°51' W 118°24'0 0.0
2016-May-24 17:26N 33°51' W 118°24'0 0.0
2016-May-24 16:32N 33°51' W 118°24'0 0.0
2016-May-24 13:32N 33°51' W 118°24'0 0.0
2016-May-24 12:32N 33°51' W 118°24'0 0.0
2016-May-24 11:32N 33°51' W 118°24'0 0.0
2016-May-24 10:32N 33°51' W 118°24'0 0.0
2016-May-24 09:32N 33°51' W 118°24'0 0.0
2016-May-24 08:32N 33°51' W 118°24'0 0.0
2016-May-24 07:32N 33°51' W 118°24'0 0.0
2016-May-24 06:32N 33°51' W 118°24'0 0.0
2016-May-24 05:29N 33°51' W 118°24'0 0.0
2016-May-24 04:32N 33°51' W 118°24'  
2016-May-20 18:05N 33°52' W 118°26'3 4.8
2016-May-20 17:26N 33°55' W 118°27'0 0.1
2016-May-20 16:32N 33°55' W 118°27'0 0.3
2016-May-20 15:32N 33°55' W 118°27'0 0.0
2016-May-20 14:32N 33°55' W 118°27'0 0.0
2016-May-20 13:32N 33°55' W 118°27'0 0.0
2016-May-20 12:27N 33°55' W 118°27'0 0.0
2016-May-20 11:33N 33°55' W 118°27'0 0.0
2016-May-20 10:33N 33°55' W 118°27'0 0.0
2016-May-20 09:33N 33°55' W 118°27'0 0.0
2016-May-20 08:33N 33°55' W 118°27'0 0.0
2016-May-20 07:27N 33°55' W 118°27'0 0.0
2016-May-20 06:33N 33°55' W 118°27'0 0.0
2016-May-20 05:33N 33°55' W 118°27'0 0.0
2016-May-20 04:33N 33°55' W 118°27'0 0.0
2016-May-20 03:33N 33°55' W 118°27'0 0.0
2016-May-20 02:09N 33°55' W 118°27'0 0.0
2016-May-20 01:32N 33°55' W 118°27'0 0.0
2016-May-20 00:33N 33°55' W 118°27'0 0.0
2016-May-19 20:12N 33°55' W 118°27'0 0.0
2016-May-19 19:28N 33°55' W 118°27'0 0.0
2016-May-19 18:33N 33°55' W 118°27'0 0.0
2016-May-19 17:33N 33°55' W 118°27'0 0.0
2016-May-19 16:33N 33°55' W 118°27'0 0.1
2016-May-19 15:33N 33°55' W 118°27'0 0.0
2016-May-19 14:33N 33°55' W 118°27'0 0.0
2016-May-19 13:33N 33°55' W 118°27'0 0.1
2016-May-19 12:33N 33°55' W 118°27'0 0.0
2016-May-19 11:18N 33°55' W 118°27'0 0.0
2016-May-19 10:30N 33°55' W 118°27'0 0.0
2016-May-19 09:33N 33°55' W 118°27'0 0.0
2016-May-19 08:33N 33°55' W 118°27'0 0.0
2016-May-19 07:26N 33°55' W 118°27'0 0.0
2016-May-19 06:21N 33°55' W 118°27'0 0.0
2016-May-19 05:32N 33°55' W 118°27'  

Dump ship's entire track history